createdAt,value
2018-08-28T00:01:19.958Z,101460.64
2018-08-28T00:03:49.846Z,101460.77
2018-08-28T00:06:18.857Z,101462.39
2018-08-28T00:08:51.441Z,101464.66
2018-08-28T00:11:20.941Z,101461.91
2018-08-28T00:13:50.880Z,101461.77
2018-08-28T00:16:19.970Z,101458.86
2018-08-28T00:18:49.153Z,101464.42
2018-08-28T00:21:18.051Z,101468.34
2018-08-28T00:23:46.937Z,101469.75
2018-08-28T00:26:16.063Z,101466.22
2018-08-28T00:28:44.961Z,101474.38
2018-08-28T00:31:15.903Z,101464.34
2018-08-28T00:33:44.916Z,101464.31
2018-08-28T00:36:13.820Z,101468.69
2018-08-28T00:38:42.822Z,101471.59
2018-08-28T00:41:11.893Z,101466.37
2018-08-28T00:43:40.849Z,101473.62
2018-08-28T00:46:14.557Z,101475.45
2018-08-28T00:48:55.613Z,101467.31
2018-08-28T00:51:36.947Z,101474.46
2018-08-28T00:54:09.752Z,101482.00
2018-08-28T00:56:39.005Z,101478.14
2018-08-28T00:59:08.393Z,101479.69
2018-08-28T01:01:37.785Z,101480.09
2018-08-28T01:04:07.747Z,101484.95
2018-08-28T01:06:36.929Z,101482.84
2018-08-28T01:09:07.033Z,101481.78
2018-08-28T01:11:36.193Z,101480.75
2018-08-28T01:14:09.007Z,101486.78
2018-08-28T01:16:37.942Z,101478.40
2018-08-28T01:19:11.345Z,101483.66
2018-08-28T01:21:42.294Z,101491.09
2018-08-28T01:24:11.174Z,101487.08
2018-08-28T01:26:50.142Z,101484.43
2018-08-28T01:29:21.111Z,101481.48
2018-08-28T01:32:02.021Z,101490.20
2018-08-28T01:34:46.973Z,101484.09
2018-08-28T01:37:22.378Z,101486.01
2018-08-28T01:39:52.298Z,101486.01
2018-08-28T01:42:44.185Z,101489.33
2018-08-28T01:45:13.117Z,101487.15
2018-08-28T01:47:49.839Z,101488.91
2018-08-28T01:50:18.722Z,101489.21
2018-08-28T01:52:58.541Z,101486.23
2018-08-28T01:55:30.870Z,101486.56
2018-08-28T01:58:00.817Z,101478.91
2018-08-28T02:00:36.924Z,101478.03
2018-08-28T02:03:25.074Z,101480.71
2018-08-28T02:09:00.212Z,101490.53
2018-08-28T02:11:29.168Z,101499.58
2018-08-28T02:14:03.977Z,101498.33
2018-08-28T02:16:48.965Z,101494.55
2018-08-28T02:19:30.337Z,101502.48
2018-08-28T02:21:59.323Z,101497.52
2018-08-28T02:24:29.269Z,101499.95
2018-08-28T02:27:05.788Z,101499.13
2018-08-28T02:29:46.732Z,101495.56
2018-08-28T02:32:20.516Z,101500.90
2018-08-28T02:34:49.598Z,101505.53
2018-08-28T02:37:18.443Z,101500.42
2018-08-28T02:42:40.576Z,101497.08
2018-08-28T02:45:09.825Z,101499.24
2018-08-28T02:47:42.710Z,101499.69
2018-08-28T02:50:11.689Z,101500.82
2018-08-28T02:52:47.499Z,101499.94
2018-08-28T02:55:29.680Z,101495.70
2018-08-28T02:57:58.545Z,101494.75
2018-08-28T03:00:27.480Z,101497.69
2018-08-28T03:02:56.673Z,101494.13
2018-08-28T03:05:25.501Z,101494.37
2018-08-28T03:07:54.373Z,101494.42
2018-08-28T03:10:28.900Z,101495.86
2018-08-28T03:13:03.733Z,101497.73
2018-08-28T03:15:34.655Z,101499.30
2018-08-28T03:18:03.600Z,101501.44
2018-08-28T03:20:32.572Z,101503.90
2018-08-28T03:23:01.518Z,101504.11
2018-08-28T03:25:31.425Z,101506.24
2018-08-28T03:28:00.434Z,101506.80
2018-08-28T03:30:36.698Z,101510.07
2018-08-28T03:33:09.867Z,101516.19
2018-08-28T03:35:56.450Z,101509.52
2018-08-28T03:38:31.815Z,101513.72
2018-08-28T03:41:02.997Z,101512.16
2018-08-28T03:43:33.050Z,101515.80
2018-08-28T03:46:03.953Z,101514.52
2018-08-28T03:48:33.013Z,101515.55
2018-08-28T03:51:02.962Z,101516.28
2018-08-28T03:53:35.125Z,101520.52
2018-08-28T03:56:09.883Z,101518.87
2018-08-28T03:58:50.162Z,101526.81
2018-08-28T04:01:37.314Z,101526.77
2018-08-28T04:04:06.322Z,101527.58
2018-08-28T04:06:39.780Z,101526.44
2018-08-28T04:09:28.614Z,101525.75
2018-08-28T04:11:57.545Z,101533.14
2018-08-28T04:14:26.424Z,101528.86
2018-08-28T04:16:59.941Z,101534.20
2018-08-28T04:19:29.892Z,101529.49
2018-08-28T04:22:03.240Z,101531.87
2018-08-28T04:24:36.072Z,101536.62
2018-08-28T04:27:05.015Z,101542.95
2018-08-28T04:29:34.957Z,101537.47
2018-08-28T04:34:58.321Z,101538.30
2018-08-28T04:37:33.107Z,101542.14
2018-08-28T04:40:02.061Z,101546.36
2018-08-28T04:42:33.060Z,101547.47
2018-08-28T04:45:08.408Z,101547.27
2018-08-28T04:47:37.425Z,101550.05
2018-08-28T04:50:07.338Z,101544.06
2018-08-28T04:52:37.295Z,101548.07
2018-08-28T04:55:09.526Z,101546.66
2018-08-28T04:57:38.516Z,101557.73
2018-08-28T05:00:08.702Z,101561.01
2018-08-28T05:02:41.001Z,101565.19
2018-08-28T05:05:16.127Z,101559.95
2018-08-28T05:07:48.394Z,101559.75
2018-08-28T05:10:18.363Z,101561.77
2018-08-28T05:12:51.863Z,101562.13
2018-08-28T05:15:22.776Z,101565.98
2018-08-28T05:17:57.753Z,101565.73
2018-08-28T05:20:27.481Z,101565.39
2018-08-28T05:22:56.420Z,101570.42
2018-08-28T05:25:39.505Z,101580.80
2018-08-28T05:28:08.677Z,101574.84
2018-08-28T05:30:50.900Z,101579.83
2018-08-28T05:33:26.104Z,101580.23
2018-08-28T05:35:59.330Z,101581.64
2018-08-28T05:38:30.281Z,101582.45
2018-08-28T05:40:59.220Z,101583.30
2018-08-28T05:43:33.831Z,101586.92
2018-08-28T05:46:13.182Z,101589.15
2018-08-28T05:48:45.429Z,101597.20
2018-08-28T05:51:14.513Z,101589.34
2018-08-28T05:53:43.530Z,101595.08
2018-08-28T05:56:15.679Z,101603.63
2018-08-28T05:58:58.252Z,101599.30
2018-08-28T06:01:44.979Z,101603.14
2018-08-28T06:04:17.901Z,101613.49
2018-08-28T06:06:52.825Z,101616.21
2018-08-28T06:09:21.809Z,101611.02
2018-08-28T06:11:50.919Z,101616.06
2018-08-28T06:14:20.414Z,101613.24
2018-08-28T06:22:36.809Z,101625.88
2018-08-28T06:25:05.731Z,101618.78
2018-08-28T06:27:39.031Z,101627.34
2018-08-28T06:30:20.260Z,101620.48
2018-08-28T06:32:50.268Z,101634.39
2018-08-28T06:35:21.429Z,101639.56
2018-08-28T06:37:56.249Z,101632.88
2018-08-28T06:40:29.964Z,101644.06
2018-08-28T06:43:11.131Z,101641.78
2018-08-28T06:45:50.163Z,101640.73
2018-08-28T06:48:29.694Z,101636.74
2018-08-28T06:51:02.942Z,101641.59
2018-08-28T06:53:35.612Z,101642.36
2018-08-28T06:56:04.600Z,101645.72
2018-08-28T06:58:33.623Z,101644.30
2018-08-28T07:01:03.885Z,101647.92
2018-08-28T07:03:33.968Z,101647.34
2018-08-28T07:06:09.432Z,101644.20
2018-08-28T07:08:55.638Z,101654.63
2018-08-28T07:11:30.391Z,101655.68
2018-08-28T07:14:04.196Z,101658.15
2018-08-28T07:16:37.891Z,101654.06
2018-08-28T07:19:08.991Z,101658.62
2018-08-28T07:21:42.877Z,101655.68
2018-08-28T07:24:15.962Z,101656.84
2018-08-28T07:26:46.509Z,101656.17
2018-08-28T07:29:25.812Z,101654.39
2018-08-28T07:31:56.869Z,101655.33
2018-08-28T07:34:26.787Z,101659.34
2018-08-28T07:36:55.704Z,101663.24
2018-08-28T07:39:25.734Z,101657.25
2018-08-28T07:41:54.716Z,101665.12
2018-08-28T07:44:31.355Z,101659.50
2018-08-28T07:47:07.914Z,101658.48
2018-08-28T07:49:42.621Z,101657.71
2018-08-28T07:52:13.497Z,101655.88
2018-08-28T07:54:44.491Z,101657.33
2018-08-28T07:57:17.016Z,101660.72
2018-08-28T07:59:50.867Z,101662.85
2018-08-28T08:02:25.964Z,101666.50
2018-08-28T08:04:59.143Z,101667.71
2018-08-28T08:07:28.051Z,101664.17
2018-08-28T08:10:05.593Z,101665.11
2018-08-28T08:12:35.674Z,101664.44
2018-08-28T08:15:21.239Z,101661.98
2018-08-28T08:18:09.051Z,101668.38
2018-08-28T08:20:42.715Z,101673.39
2018-08-28T08:23:20.591Z,101671.25
2018-08-28T08:25:50.837Z,101671.77
2018-08-28T08:28:21.770Z,101671.70
2018-08-28T08:30:50.977Z,101676.41
2018-08-28T08:33:25.562Z,101679.57
2018-08-28T08:35:55.503Z,101679.57
2018-08-28T08:38:25.043Z,101676.98
2018-08-28T08:40:58.096Z,101674.73
2018-08-28T08:43:28.133Z,101673.44
2018-08-28T08:46:00.971Z,101675.81
2018-08-28T08:48:33.552Z,101674.80
2018-08-28T08:51:03.684Z,101674.51
2018-08-28T08:53:32.852Z,101676.03
2018-08-28T08:56:07.889Z,101671.83
2018-08-28T08:58:36.833Z,101663.09
2018-08-28T09:01:06.658Z,101676.27
2018-08-28T09:03:35.842Z,101668.72
2018-08-28T09:06:11.245Z,101666.27
2018-08-28T09:08:43.898Z,101662.30
2018-08-28T09:11:14.867Z,101666.33
2018-08-28T09:13:44.878Z,101665.48
2018-08-28T09:19:17.728Z,101660.84
2018-08-28T09:21:53.097Z,101664.25
2018-08-28T09:24:23.094Z,101658.06
2018-08-28T09:26:59.789Z,101658.62
2018-08-28T09:29:42.623Z,101655.38
2018-08-28T09:32:12.115Z,101642.12
2018-08-28T09:34:41.038Z,101650.55
2018-08-28T09:37:10.018Z,101647.56
2018-08-28T09:39:38.917Z,101641.66
2018-08-28T09:42:07.855Z,101642.94
2018-08-28T09:44:42.642Z,101645.40
2018-08-28T09:47:15.365Z,101640.20
2018-08-28T09:49:49.257Z,101637.27
2018-08-28T09:52:20.387Z,101636.19
2018-08-28T09:54:52.781Z,101632.17
2018-08-28T09:57:28.727Z,101635.73
2018-08-28T10:00:01.179Z,101636.02
2018-08-28T10:02:30.320Z,101638.20
2018-08-28T10:04:59.431Z,101636.95
2018-08-28T10:07:28.392Z,101634.44
2018-08-28T10:10:05.574Z,101634.38
2018-08-28T10:12:37.927Z,101629.52
2018-08-28T10:15:08.016Z,101634.26
2018-08-28T10:17:41.733Z,101627.20
2018-08-28T10:20:10.752Z,101626.40
2018-08-28T10:22:40.684Z,101620.44
2018-08-28T10:25:09.609Z,101617.20
2018-08-28T10:27:40.566Z,101607.00
2018-08-28T10:30:15.088Z,101608.75
2018-08-28T10:32:44.742Z,101614.84
2018-08-28T10:35:15.264Z,101611.27
2018-08-28T10:37:44.237Z,101610.70
2018-08-28T10:40:15.177Z,101621.11
2018-08-28T10:42:45.282Z,101609.31
2018-08-28T10:45:17.583Z,101608.52
2018-08-28T10:47:59.027Z,101602.83
2018-08-28T10:50:30.063Z,101595.70
2018-08-28T10:53:00.293Z,101596.35
2018-08-28T10:55:35.168Z,101589.52
2018-08-28T10:58:08.505Z,101592.95
2018-08-28T11:00:38.456Z,101601.39
2018-08-28T11:03:12.264Z,101597.28
2018-08-28T11:05:42.158Z,101598.38
2018-08-28T11:08:13.490Z,101593.17
2018-08-28T11:10:42.417Z,101592.89
2018-08-28T11:13:11.557Z,101594.83
2018-08-28T11:15:42.436Z,101594.86
2018-08-28T11:18:17.223Z,101591.07
2018-08-28T11:20:52.115Z,101590.26
2018-08-28T11:23:26.136Z,101590.63
2018-08-28T11:25:58.484Z,101590.12
2018-08-28T11:28:30.963Z,101586.85
2018-08-28T11:31:00.969Z,101584.12
2018-08-28T11:33:40.067Z,101583.34
2018-08-28T11:36:10.213Z,101581.45
2018-08-28T11:38:46.559Z,101580.09
2018-08-28T11:41:15.662Z,101581.52
2018-08-28T11:43:50.845Z,101580.70
2018-08-28T11:46:36.432Z,101582.84
2018-08-28T11:49:05.453Z,101579.58
2018-08-28T11:51:37.899Z,101570.27
2018-08-28T11:54:07.136Z,101580.14
2018-08-28T11:56:36.268Z,101573.29
2018-08-28T11:59:08.387Z,101578.22
2018-08-28T12:01:38.357Z,101582.87
2018-08-28T12:04:08.398Z,101578.48
2018-08-28T12:06:39.444Z,101581.20
2018-08-28T12:09:09.121Z,101586.42
2018-08-28T12:11:40.065Z,101574.66
2018-08-28T12:14:14.394Z,101570.02
2018-08-28T12:16:49.628Z,101576.84
2018-08-28T12:19:30.835Z,101578.77
2018-08-28T12:22:06.163Z,101579.33
2018-08-28T12:24:39.383Z,101575.20
2018-08-28T12:27:08.271Z,101568.61
2018-08-28T12:29:38.342Z,101570.00
2018-08-28T12:32:18.127Z,101563.67
2018-08-28T12:34:51.478Z,101562.06
2018-08-28T12:37:24.307Z,101562.63
2018-08-28T12:39:53.257Z,101555.73
2018-08-28T12:42:22.351Z,101551.28
2018-08-28T12:44:54.852Z,101550.95
2018-08-28T12:50:03.681Z,101538.49
2018-08-28T12:52:32.660Z,101533.70
2018-08-28T12:55:01.650Z,101535.64
2018-08-28T12:57:31.486Z,101525.45
2018-08-28T13:00:01.476Z,101522.53
2018-08-28T13:02:47.783Z,101519.47
2018-08-28T13:05:16.677Z,101517.53
2018-08-28T13:07:45.593Z,101512.52
2018-08-28T13:10:14.609Z,101510.21
2018-08-28T13:12:45.512Z,101510.33
2018-08-28T13:15:14.525Z,101506.52
2018-08-28T13:17:43.585Z,101503.94
2018-08-28T13:20:12.529Z,101497.14
2018-08-28T13:22:41.643Z,101496.34
2018-08-28T13:25:11.090Z,101500.52
2018-08-28T13:27:49.528Z,101495.59
2018-08-28T13:30:26.337Z,101493.69
2018-08-28T13:32:55.270Z,101487.13
2018-08-28T13:35:28.372Z,101489.38
2018-08-28T13:38:03.422Z,101487.95
2018-08-28T13:40:39.643Z,101481.35
2018-08-28T13:43:09.437Z,101473.75
2018-08-28T13:45:39.477Z,101475.08
2018-08-28T13:48:13.104Z,101476.98
2018-08-28T13:50:44.032Z,101474.78
2018-08-28T13:53:18.795Z,101470.91
2018-08-28T13:55:50.952Z,101464.53
2018-08-28T13:58:20.074Z,101466.07
2018-08-28T14:00:55.930Z,101463.30
2018-08-28T14:03:24.825Z,101456.33
2018-08-28T14:05:54.682Z,101461.78
2018-08-28T14:08:24.621Z,101456.59
2018-08-28T14:10:59.418Z,101458.52
2018-08-28T14:13:28.432Z,101453.01
2018-08-28T14:15:57.211Z,101451.03
2018-08-28T14:18:29.711Z,101455.34
2018-08-28T14:21:03.081Z,101454.78
2018-08-28T14:23:35.529Z,101450.22
2018-08-28T14:26:04.501Z,101448.55
2018-08-28T14:28:34.459Z,101448.16
2018-08-28T14:31:08.659Z,101447.63
2018-08-28T14:33:38.598Z,101443.66
2018-08-28T14:36:07.708Z,101450.81
2018-08-28T14:38:40.730Z,101441.92
2018-08-28T14:41:12.713Z,101439.30
2018-08-28T14:43:45.640Z,101444.31
2018-08-28T14:46:26.743Z,101441.88
2018-08-28T14:48:59.690Z,101436.75
2018-08-28T14:51:36.173Z,101434.02
2018-08-28T14:54:06.379Z,101434.84
2018-08-28T14:56:36.377Z,101428.55
2018-08-28T14:59:10.905Z,101425.13
2018-08-28T15:01:39.812Z,101428.41
2018-08-28T15:04:09.859Z,101429.27
2018-08-28T15:06:44.316Z,101425.17
2018-08-28T15:09:13.390Z,101418.36
2018-08-28T15:11:49.077Z,101409.41
2018-08-28T15:14:35.992Z,101418.18
2018-08-28T15:17:06.686Z,101403.91
2018-08-28T15:19:38.099Z,101404.67
2018-08-28T15:22:10.850Z,101398.11
2018-08-28T15:24:40.221Z,101389.80
2018-08-28T15:27:11.157Z,101388.77
2018-08-28T15:29:40.143Z,101387.11
2018-08-28T15:32:09.162Z,101389.03
2018-08-28T15:34:38.159Z,101381.89
2018-08-28T15:37:07.368Z,101385.38
2018-08-28T15:39:37.340Z,101389.19
2018-08-28T15:42:09.811Z,101388.50
2018-08-28T15:44:38.869Z,101389.58
2018-08-28T15:47:09.838Z,101388.20
2018-08-28T15:49:38.958Z,101391.79
2018-08-28T15:52:17.453Z,101378.93
2018-08-28T15:54:46.770Z,101382.67
2018-08-28T15:57:27.584Z,101383.22
2018-08-28T16:00:02.247Z,101379.43
2018-08-28T16:02:31.163Z,101382.73
2018-08-28T16:05:02.179Z,101379.19
2018-08-28T16:07:32.193Z,101375.89
2018-08-28T16:10:02.170Z,101378.66
2018-08-28T16:12:31.139Z,101367.95
2018-08-28T16:15:00.175Z,101368.72
2018-08-28T16:17:32.242Z,101357.72
2018-08-28T16:20:01.271Z,101362.72
2018-08-28T16:22:36.249Z,101352.04
2018-08-28T16:25:06.248Z,101359.48
2018-08-28T16:27:35.504Z,101355.05
2018-08-28T16:30:08.574Z,101351.00
2018-08-28T16:32:37.606Z,101348.83
2018-08-28T16:35:07.967Z,101349.05
2018-08-28T16:37:41.421Z,101345.50
2018-08-28T16:40:11.039Z,101345.20
2018-08-28T16:42:40.096Z,101338.97
2018-08-28T16:45:09.017Z,101338.66
2018-08-28T16:47:37.962Z,101326.03
2018-08-28T16:50:06.862Z,101323.31
2018-08-28T16:52:35.776Z,101327.21
2018-08-28T16:55:04.833Z,101321.94
2018-08-28T16:57:33.742Z,101319.78
2018-08-28T17:00:03.606Z,101311.37
2018-08-28T17:02:33.498Z,101308.66
2018-08-28T17:05:02.582Z,101304.05
2018-08-28T17:07:32.211Z,101297.47
2018-08-28T17:10:02.483Z,101302.66
2018-08-28T17:12:33.392Z,101306.22
2018-08-28T17:15:02.468Z,101300.53
2018-08-28T17:17:31.345Z,101293.75
2018-08-28T17:20:00.250Z,101298.73
2018-08-28T17:22:29.221Z,101285.34
2018-08-28T17:24:58.449Z,101286.73
2018-08-28T17:27:29.351Z,101282.62
2018-08-28T17:29:59.463Z,101285.70
2018-08-28T17:32:35.801Z,101281.34
2018-08-28T17:35:04.746Z,101283.59
2018-08-28T17:37:34.095Z,101281.14
2018-08-28T17:40:03.010Z,101281.73
2018-08-28T17:42:33.096Z,101282.86
2018-08-28T17:45:01.960Z,101276.32
2018-08-28T17:47:30.930Z,101283.21
2018-08-28T17:50:00.829Z,101280.50
2018-08-28T17:52:33.313Z,101290.39
2018-08-28T17:55:02.189Z,101278.91
2018-08-28T17:57:37.563Z,101277.29
2018-08-28T18:00:12.402Z,101286.07
2018-08-28T18:02:51.338Z,101289.12
2018-08-28T18:05:22.237Z,101284.19
2018-08-28T18:07:56.881Z,101290.52
2018-08-28T18:10:27.179Z,101286.44
2018-08-28T18:12:56.133Z,101287.27
2018-08-28T18:15:25.031Z,101281.25
2018-08-28T18:17:57.433Z,101282.10
2018-08-28T18:20:40.115Z,101280.99
2018-08-28T18:23:09.188Z,101283.48
2018-08-28T18:25:40.080Z,101287.81
2018-08-28T18:28:08.988Z,101287.56
2018-08-28T18:30:43.536Z,101290.30
2018-08-28T18:33:12.430Z,101284.00
2018-08-28T18:35:44.549Z,101290.30
2018-08-28T18:38:13.506Z,101280.73
2018-08-28T18:40:42.412Z,101281.27
2018-08-28T18:43:14.564Z,101279.36
2018-08-28T18:45:43.510Z,101275.51
2018-08-28T18:48:12.436Z,101275.23
2018-08-28T18:50:48.519Z,101282.34
2018-08-28T18:53:17.430Z,101286.44
2018-08-28T18:55:47.398Z,101277.42
2018-08-28T18:58:17.477Z,101282.05
2018-08-28T19:00:46.402Z,101288.06
2018-08-28T19:03:23.424Z,101289.70
2018-08-28T19:05:52.361Z,101281.20
2018-08-28T19:08:23.377Z,101283.14
2018-08-28T19:10:53.345Z,101279.84
2018-08-28T19:13:22.563Z,101279.55
2018-08-28T19:15:51.502Z,101280.39
2018-08-28T19:18:22.444Z,101280.06
2018-08-28T19:20:51.476Z,101275.41
2018-08-28T19:23:23.529Z,101275.11
2018-08-28T19:25:57.360Z,101278.95
2018-08-28T19:28:33.616Z,101282.19
2018-08-28T19:31:03.057Z,101278.38
2018-08-28T19:33:33.133Z,101277.56
2018-08-28T19:36:04.088Z,101278.65
2018-08-28T19:38:35.796Z,101280.80
2018-08-28T19:41:04.944Z,101278.06
2018-08-28T19:43:37.534Z,101273.95
2018-08-28T19:46:10.460Z,101271.20
2018-08-28T19:48:56.013Z,101278.58
2018-08-28T19:51:26.976Z,101269.56
2018-08-28T19:53:58.001Z,101268.45
2018-08-28T19:56:34.131Z,101260.53
2018-08-28T19:59:03.143Z,101257.52
2018-08-28T20:01:35.354Z,101255.34
2018-08-28T20:04:09.033Z,101257.50
2018-08-28T20:06:38.990Z,101257.48
2018-08-28T20:09:08.916Z,101257.77
2018-08-28T20:11:38.356Z,101254.20
2018-08-28T20:14:07.755Z,101249.02
2018-08-28T20:16:38.392Z,101251.20
2018-08-28T20:19:13.631Z,101242.73
2018-08-28T20:21:48.368Z,101241.08
2018-08-28T20:24:23.483Z,101248.19
2018-08-28T20:26:53.222Z,101241.89
2018-08-28T20:29:24.469Z,101237.27
2018-08-28T20:32:02.623Z,101246.53
2018-08-28T20:34:36.092Z,101240.27
2018-08-28T20:37:06.301Z,101245.14
2018-08-28T20:39:42.078Z,101234.50
2018-08-28T20:42:14.306Z,101234.49
2018-08-28T20:45:04.189Z,101235.88
2018-08-28T20:47:34.168Z,101234.24
2018-08-28T20:50:05.405Z,101237.25
2018-08-28T20:52:40.827Z,101226.63
2018-08-28T20:55:10.724Z,101235.34
2018-08-28T20:57:39.642Z,101226.07
2018-08-28T21:00:09.699Z,101218.68
2018-08-28T21:02:46.628Z,101214.58
2018-08-28T21:05:20.088Z,101214.84
2018-08-28T21:07:50.033Z,101214.33
2018-08-28T21:10:20.183Z,101211.60
2018-08-28T21:12:51.567Z,101201.50
2018-08-28T21:15:34.663Z,101202.58
2018-08-28T21:18:07.521Z,101197.12
2018-08-28T21:20:40.395Z,101191.92
2018-08-28T21:23:11.512Z,101193.30
2018-08-28T21:25:44.978Z,101196.04
2018-08-28T21:28:13.937Z,101187.87
2018-08-28T21:30:46.748Z,101185.95
2018-08-28T21:33:17.797Z,101178.86
2018-08-28T21:35:53.634Z,101188.97
2018-08-28T21:38:36.782Z,101192.23
2018-08-28T21:41:10.774Z,101181.88
2018-08-28T21:43:41.822Z,101182.14
2018-08-28T21:46:16.439Z,101182.14
2018-08-28T21:48:58.966Z,101177.50
2018-08-28T21:51:27.931Z,101166.57
2018-08-28T21:53:58.736Z,101168.75
2018-08-28T21:56:34.278Z,101166.30
2018-08-28T21:59:08.791Z,101166.02
2018-08-28T22:01:39.803Z,101169.81
2018-08-28T22:04:16.239Z,101161.36
2018-08-28T22:07:49.166Z,101167.94
2018-08-28T22:10:20.157Z,101162.20
2018-08-28T22:12:57.342Z,101164.28
2018-08-28T22:15:27.251Z,101158.08
2018-08-28T22:17:59.646Z,101157.81
2018-08-28T22:20:32.581Z,101149.34
2018-08-28T22:23:05.958Z,101150.42
2018-08-28T22:25:34.932Z,101150.19
2018-08-28T22:28:03.982Z,101146.34
2018-08-28T22:30:32.881Z,101149.63
2018-08-28T22:33:18.661Z,101154.52
2018-08-28T22:35:47.646Z,101149.89
2018-08-28T22:38:17.617Z,101148.49
2018-08-28T22:40:46.629Z,101136.47
2018-08-28T22:43:22.233Z,101141.38
2018-08-28T22:46:11.498Z,101144.98
2018-08-28T22:48:40.493Z,101144.45
2018-08-28T22:51:12.909Z,101152.83
2018-08-28T22:53:41.930Z,101142.74
2018-08-28T22:56:10.842Z,101149.27
2018-08-28T22:58:44.131Z,101143.75
2018-08-28T23:01:17.849Z,101137.23
2018-08-28T23:03:49.938Z,101138.56
2018-08-28T23:06:19.804Z,101137.19
2018-08-28T23:08:49.807Z,101136.30
2018-08-28T23:11:24.103Z,101128.14
2018-08-28T23:13:53.070Z,101130.80
2018-08-28T23:16:23.999Z,101135.43
2018-08-28T23:19:06.539Z,101126.69
2018-08-28T23:21:48.091Z,101127.78
2018-08-28T23:24:17.632Z,101123.12
2018-08-28T23:26:54.199Z,101121.73
2018-08-28T23:29:33.024Z,101125.22
2018-08-28T23:32:06.255Z,101125.99
2018-08-28T23:34:35.174Z,101118.84
2018-08-28T23:37:21.540Z,101123.62
2018-08-28T23:42:48.704Z,101123.80
2018-08-28T23:45:23.539Z,101118.33
2018-08-28T23:47:59.765Z,101113.91
2018-08-28T23:50:29.809Z,101110.30
2018-08-28T23:53:01.917Z,101112.95
2018-08-28T23:55:31.153Z,101119.71
2018-08-28T23:58:03.493Z,101118.80
